Terminal Aerodrome Forecast
Issued by NWS Charleston, WV

Current Version | Previous Version | Graphics & Text | Print | Product List | Glossary On
Versions: 1 2 3 4 5 6 7 8 9 10 11 12 13 14 15 16 17 18
435
FTUS41 KRLX 090907 AAA
TAFBKW
TAF AMD
KBKW 090907Z 0909/1006 27006KT 5SM -SHSN SCT012 OVC040
      TEMPO 0909/0911 2SM -SHSN BKN012
     FM091100 26010G17KT 1 1/2SM -SHSN OVC008
     FM091400 28011G19KT 4SM -SHSN OVC015
     FM091700 28012G20KT P6SM -SHSN OVC025
     FM100000 28009KT 3SM -SHSN OVC015=

USA.gov is the U.S. government's official web portal to all federal, state and local government web resources and services.